sensor_id;sensor_type;location;lat;lon;timestamp;pressure;altitude;pressure_sealevel;temperature;humidity
77005;BME280;67261;53.132;18.006;2024-01-10T09:30:08;102906.08;;;-0.67;77.98
77005;BME280;67261;53.132;18.006;2024-01-10T09:32:36;102904.60;;;-0.61;77.98
77005;BME280;67261;53.132;18.006;2024-01-10T09:35:03;102902.61;;;-0.66;78.07
77005;BME280;67261;53.132;18.006;2024-01-10T09:37:30;102905.88;;;-0.74;78.29
77005;BME280;67261;53.132;18.006;2024-01-10T09:39:57;102899.19;;;-0.78;78.34
77005;BME280;67261;53.132;18.006;2024-01-10T09:42:27;102890.17;;;-0.80;78.37
77005;BME280;67261;53.132;18.006;2024-01-10T09:44:58;102882.71;;;-0.81;78.34
77005;BME280;67261;53.132;18.006;2024-01-10T09:47:25;102883.48;;;-0.84;78.51
77005;BME280;67261;53.132;18.006;2024-01-10T09:49:52;102880.90;;;-0.86;78.47
77005;BME280;67261;53.132;18.006;2024-01-10T09:52:34;102878.44;;;-0.85;78.55
77005;BME280;67261;53.132;18.006;2024-01-10T09:55:11;102864.55;;;-0.84;78.48
77005;BME280;67261;53.132;18.006;2024-01-10T09:57:40;102863.77;;;-0.81;78.60
77005;BME280;67261;53.132;18.006;2024-01-10T10:00:10;102859.42;;;-0.80;78.41
77005;BME280;67261;53.132;18.006;2024-01-10T10:02:38;102859.92;;;-0.80;78.46
77005;BME280;67261;53.132;18.006;2024-01-10T10:05:13;102863.24;;;-0.80;78.42
77005;BME280;67261;53.132;18.006;2024-01-10T10:10:16;102872.98;;;-0.80;78.62
77005;BME280;67261;53.132;18.006;2024-01-10T10:12:44;102875.16;;;-0.76;78.59
77005;BME280;67261;53.132;18.006;2024-01-10T10:15:16;102871.91;;;-0.78;78.55
77005;BME280;67261;53.132;18.006;2024-01-10T10:17:44;102864.45;;;-0.79;78.57
77005;BME280;67261;53.132;18.006;2024-01-10T10:20:19;102868.95;;;-0.79;78.61
77005;BME280;67261;53.132;18.006;2024-01-10T10:23:04;102872.27;;;-0.80;78.49
77005;BME280;67261;53.132;18.006;2024-01-10T10:25:34;102875.01;;;-0.77;78.43
77005;BME280;67261;53.132;18.006;2024-01-10T10:28:02;102883.16;;;-0.76;78.39
77005;BME280;67261;53.132;18.006;2024-01-10T10:30:31;102887.21;;;-0.79;78.46
77005;BME280;67261;53.132;18.006;2024-01-10T10:33:02;102886.77;;;-0.84;78.64
77005;BME280;67261;53.132;18.006;2024-01-10T10:35:30;102887.20;;;-0.87;78.48
77005;BME280;67261;53.132;18.006;2024-01-10T10:37:58;102881.33;;;-0.90;78.72
77005;BME280;67261;53.132;18.006;2024-01-10T10:40:26;102886.09;;;-0.85;78.62
77005;BME280;67261;53.132;18.006;2024-01-10T10:42:56;102885.53;;;-0.82;78.56
77005;BME280;67261;53.132;18.006;2024-01-10T10:45:24;102882.17;;;-0.80;78.62
77005;BME280;67261;53.132;18.006;2024-01-10T10:48:00;102885.61;;;-0.77;78.47
77005;BME280;67261;53.132;18.006;2024-01-10T10:50:32;102883.84;;;-0.76;78.53
77005;BME280;67261;53.132;18.006;2024-01-10T10:53:02;102882.33;;;-0.78;78.48
77005;BME280;67261;53.132;18.006;2024-01-10T10:55:31;102874.02;;;-0.80;78.73
77005;BME280;67261;53.132;18.006;2024-01-10T10:58:01;102874.02;;;-0.80;78.55
77005;BME280;67261;53.132;18.006;2024-01-10T11:00:32;102873.55;;;-0.82;78.72
77005;BME280;67261;53.132;18.006;2024-01-10T11:03:02;102872.86;;;-0.83;78.67
77005;BME280;67261;53.132;18.006;2024-01-10T11:05:32;102871.50;;;-0.85;78.58
77005;BME280;67261;53.132;18.006;2024-01-10T11:08:01;102870.72;;;-0.89;78.70
77005;BME280;67261;53.132;18.006;2024-01-10T11:10:33;102867.96;;;-0.90;78.73
77005;BME280;67261;53.132;18.006;2024-01-10T11:13:37;102862.95;;;-0.92;78.88
77005;BME280;67261;53.132;18.006;2024-01-10T11:19:22;102868.02;;;-0.94;78.91
77005;BME280;67261;53.132;18.006;2024-01-10T11:24:39;102853.11;;;-0.96;78.65
77005;BME280;67261;53.132;18.006;2024-01-10T11:27:12;102847.46;;;-1.01;78.87
77005;BME280;67261;53.132;18.006;2024-01-10T11:29:42;102842.48;;;-1.03;78.86
77005;BME280;67261;53.132;18.006;2024-01-10T11:32:14;102847.15;;;-1.02;79.03
77005;BME280;67261;53.132;18.006;2024-01-10T11:37:44;102847.09;;;-1.08;79.14
77005;BME280;67261;53.132;18.006;2024-01-10T11:40:12;102848.50;;;-1.09;78.98
77005;BME280;67261;53.132;18.006;2024-01-10T11:42:42;102845.56;;;-1.10;79.04
77005;BME280;67261;53.132;18.006;2024-01-10T11:45:10;102846.77;;;-1.10;79.11
77005;BME280;67261;53.132;18.006;2024-01-10T11:47:40;102843.52;;;-1.12;79.06
77005;BME280;67261;53.132;18.006;2024-01-10T11:50:08;102841.10;;;-1.13;79.03
77005;BME280;67261;53.132;18.006;2024-01-10T11:52:36;102839.89;;;-1.14;79.16
77005;BME280;67261;53.132;18.006;2024-01-10T11:55:04;102833.48;;;-1.15;79.04
77005;BME280;67261;53.132;18.006;2024-01-10T11:57:33;102827.81;;;-1.18;79.12
77005;BME280;67261;53.132;18.006;2024-01-10T12:00:00;102824.74;;;-1.21;79.20
77005;BME280;67261;53.132;18.006;2024-01-10T12:02:32;102830.19;;;-1.24;79.22
77005;BME280;67261;53.132;18.006;2024-01-10T12:10:59;102827.95;;;-1.25;79.20
77005;BME280;67261;53.132;18.006;2024-01-10T12:13:26;102824.71;;;-1.29;79.16
77005;BME280;67261;53.132;18.006;2024-01-10T12:15:53;102823.87;;;-1.30;79.15
77005;BME280;67261;53.132;18.006;2024-01-10T12:18:20;102827.21;;;-1.34;79.16
77005;BME280;67261;53.132;18.006;2024-01-10T12:20:48;102830.35;;;-1.35;79.27
77005;BME280;67261;53.132;18.006;2024-01-10T12:23:15;102826.88;;;-1.34;79.38
77005;BME280;67261;53.132;18.006;2024-01-10T12:25:42;102825.70;;;-1.36;79.28
77005;BME280;67261;53.132;18.006;2024-01-10T12:28:09;102826.57;;;-1.36;79.14
77005;BME280;67261;53.132;18.006;2024-01-10T12:30:36;102825.73;;;-1.38;79.15
77005;BME280;67261;53.132;18.006;2024-01-10T12:33:03;102823.52;;;-1.40;79.39
77005;BME280;67261;53.132;18.006;2024-01-10T12:35:30;102821.61;;;-1.41;79.30
77005;BME280;67261;53.132;18.006;2024-01-10T12:37:57;102825.11;;;-1.42;79.28
77005;BME280;67261;53.132;18.006;2024-01-10T12:40:24;102822.04;;;-1.46;79.42
77005;BME280;67261;53.132;18.006;2024-01-10T12:43:05;102821.56;;;-1.48;79.13
77005;BME280;67261;53.132;18.006;2024-01-10T12:45:32;102813.08;;;-1.49;79.15
77005;BME280;67261;53.132;18.006;2024-01-10T12:47:59;102814.13;;;-1.51;79.26
77005;BME280;67261;53.132;18.006;2024-01-10T12:50:27;102816.61;;;-1.52;79.27
77005;BME280;67261;53.132;18.006;2024-01-10T12:52:54;102810.73;;;-1.55;79.39
77005;BME280;67261;53.132;18.006;2024-01-10T12:55:21;102806.77;;;-1.55;79.09
77005;BME280;67261;53.132;18.006;2024-01-10T12:57:52;102802.09;;;-1.57;79.11
77005;BME280;67261;53.132;18.006;2024-01-10T13:00:19;102801.47;;;-1.61;79.19
77005;BME280;67261;53.132;18.006;2024-01-10T13:02:46;102801.13;;;-1.62;79.15
77005;BME280;67261;53.132;18.006;2024-01-10T13:05:14;102797.14;;;-1.61;79.26
77005;BME280;67261;53.132;18.006;2024-01-10T13:07:41;102796.27;;;-1.61;79.35
77005;BME280;67261;53.132;18.006;2024-01-10T13:10:08;102793.65;;;-1.61;79.20
77005;BME280;67261;53.132;18.006;2024-01-10T13:12:35;102797.46;;;-1.60;79.21
77005;BME280;67261;53.132;18.006;2024-01-10T13:15:02;102789.45;;;-1.58;79.36
77005;BME280;67261;53.132;18.006;2024-01-10T13:17:30;102793.76;;;-1.57;79.07
77005;BME280;67261;53.132;18.006;2024-01-10T13:19:58;102795.66;;;-1.55;79.13
77005;BME280;67261;53.132;18.006;2024-01-10T13:22:25;102794.06;;;-1.54;79.03
77005;BME280;67261;53.132;18.006;2024-01-10T13:24:52;102795.16;;;-1.57;79.16
77005;BME280;67261;53.132;18.006;2024-01-10T13:27:19;102792.58;;;-1.59;79.15
77005;BME280;67261;53.132;18.006;2024-01-10T13:29:46;102792.84;;;-1.63;79.10
77005;BME280;67261;53.132;18.006;2024-01-10T13:32:13;102794.79;;;-1.66;79.12
77005;BME280;67261;53.132;18.006;2024-01-10T13:34:42;102790.38;;;-1.72;79.15
77005;BME280;67261;53.132;18.006;2024-01-10T13:37:09;102781.60;;;-1.76;79.09
77005;BME280;67261;53.132;18.006;2024-01-10T13:39:41;102772.94;;;-1.77;79.06
77005;BME280;67261;53.132;18.006;2024-01-10T13:42:08;102768.45;;;-1.78;79.04
77005;BME280;67261;53.132;18.006;2024-01-10T13:44:38;102764.33;;;-1.82;79.00
77005;BME280;67261;53.132;18.006;2024-01-10T13:47:05;102764.92;;;-1.85;79.14
77005;BME280;67261;53.132;18.006;2024-01-10T13:49:33;102765.61;;;-1.85;79.19
77005;BME280;67261;53.132;18.006;2024-01-10T13:52:00;102763.21;;;-1.87;79.03
77005;BME280;67261;53.132;18.006;2024-01-10T13:54:27;102759.57;;;-1.87;79.35
77005;BME280;67261;53.132;18.006;2024-01-10T13:56:54;102749.30;;;-1.85;79.31
77005;BME280;67261;53.132;18.006;2024-01-10T13:59:22;102751.70;;;-1.83;79.36
77005;BME280;67261;53.132;18.006;2024-01-10T14:01:49;102746.45;;;-1.80;79.22
77005;BME280;67261;53.132;18.006;2024-01-10T14:04:16;102746.98;;;-1.82;79.11
77005;BME280;67261;53.132;18.006;2024-01-10T14:06:43;102747.20;;;-1.84;79.05
77005;BME280;67261;53.132;18.006;2024-01-10T14:09:10;102751.40;;;-1.85;79.28
77005;BME280;67261;53.132;18.006;2024-01-10T14:11:37;102752.97;;;-1.87;79.35
77005;BME280;67261;53.132;18.006;2024-01-10T14:14:04;102755.06;;;-1.88;79.26
77005;BME280;67261;53.132;18.006;2024-01-10T14:16:31;102755.45;;;-1.89;79.42
77005;BME280;67261;53.132;18.006;2024-01-10T14:18:58;102758.06;;;-1.90;79.41
77005;BME280;67261;53.132;18.006;2024-01-10T14:21:25;102756.95;;;-1.97;79.20
77005;BME280;67261;53.132;18.006;2024-01-10T14:23:53;102753.73;;;-2.03;79.53
77005;BME280;67261;53.132;18.006;2024-01-10T14:26:19;102753.41;;;-2.04;79.57
77005;BME280;67261;53.132;18.006;2024-01-10T14:28:48;102748.92;;;-2.06;79.52
77005;BME280;67261;53.132;18.006;2024-01-10T14:31:15;102746.04;;;-2.09;79.68
77005;BME280;67261;53.132;18.006;2024-01-10T14:33:42;102742.77;;;-2.10;79.59
77005;BME280;67261;53.132;18.006;2024-01-10T14:36:09;102742.07;;;-2.10;79.88
77005;BME280;67261;53.132;18.006;2024-01-10T14:38:38;102741.02;;;-2.10;79.83
77005;BME280;67261;53.132;18.006;2024-01-10T14:41:09;102742.59;;;-2.10;79.77
77005;BME280;67261;53.132;18.006;2024-01-10T14:43:36;102737.95;;;-2.13;79.82
77005;BME280;67261;53.132;18.006;2024-01-10T14:46:05;102737.27;;;-2.14;79.64
77005;BME280;67261;53.132;18.006;2024-01-10T14:48:37;102740.58;;;-2.15;79.77
77005;BME280;67261;53.132;18.006;2024-01-10T14:51:05;102741.85;;;-2.18;79.89
77005;BME280;67261;53.132;18.006;2024-01-10T14:53:34;102740.36;;;-2.23;79.88
77005;BME280;67261;53.132;18.006;2024-01-10T14:56:03;102733.79;;;-2.25;79.94
77005;BME280;67261;53.132;18.006;2024-01-10T14:58:31;102731.04;;;-2.25;80.13
77005;BME280;67261;53.132;18.006;2024-01-10T15:00:58;102731.05;;;-2.26;80.13
77005;BME280;67261;53.132;18.006;2024-01-10T15:03:26;102729.48;;;-2.26;80.26
77005;BME280;67261;53.132;18.006;2024-01-10T15:05:53;102728.45;;;-2.25;80.07
77005;BME280;67261;53.132;18.006;2024-01-10T15:08:21;102729.13;;;-2.25;80.18
77005;BME280;67261;53.132;18.006;2024-01-10T15:10:48;102725.33;;;-2.26;80.18
77005;BME280;67261;53.132;18.006;2024-01-10T15:13:15;102720.83;;;-2.27;80.16
77005;BME280;67261;53.132;18.006;2024-01-10T15:15:44;102720.12;;;-2.26;80.16
77005;BME280;67261;53.132;18.006;2024-01-10T15:18:11;102720.82;;;-2.26;80.24
77005;BME280;67261;53.132;18.006;2024-01-10T15:20:38;102716.48;;;-2.27;80.21
77005;BME280;67261;53.132;18.006;2024-01-10T15:23:06;102714.95;;;-2.27;80.29
77005;BME280;67261;53.132;18.006;2024-01-10T15:25:33;102715.27;;;-2.26;80.41
77005;BME280;67261;53.132;18.006;2024-01-10T15:28:01;102719.95;;;-2.26;80.25
77005;BME280;67261;53.132;18.006;2024-01-10T15:30:28;102720.64;;;-2.25;80.38
77005;BME280;67261;53.132;18.006;2024-01-10T15:32:55;102719.95;;;-2.26;80.42
77005;BME280;67261;53.132;18.006;2024-01-10T15:35:22;102718.39;;;-2.27;80.36
77005;BME280;67261;53.132;18.006;2024-01-10T15:37:49;102720.17;;;-2.29;80.34
77005;BME280;67261;53.132;18.006;2024-01-10T15:40:16;102720.88;;;-2.30;80.48
77005;BME280;67261;53.132;18.006;2024-01-10T15:42:43;102716.55;;;-2.31;80.55
77005;BME280;67261;53.132;18.006;2024-01-10T15:45:11;102712.77;;;-2.33;80.45
77005;BME280;67261;53.132;18.006;2024-01-10T15:47:38;102712.64;;;-2.36;80.44
77005;BME280;67261;53.132;18.006;2024-01-10T15:50:06;102713.17;;;-2.36;80.80
77005;BME280;67261;53.132;18.006;2024-01-10T15:52:34;102713.99;;;-2.33;80.64
77005;BME280;67261;53.132;18.006;2024-01-10T15:55:03;102716.22;;;-2.31;80.65
77005;BME280;67261;53.132;18.006;2024-01-10T15:57:30;102714.45;;;-2.29;80.56
77005;BME280;67261;53.132;18.006;2024-01-10T15:59:57;102709.94;;;-2.28;80.52
77005;BME280;67261;53.132;18.006;2024-01-10T16:02:26;102705.61;;;-2.28;80.55
77005;BME280;67261;53.132;18.006;2024-01-10T16:04:53;102702.45;;;-2.27;80.50
77005;BME280;67261;53.132;18.006;2024-01-10T16:07:21;102702.27;;;-2.27;80.49
77005;BME280;67261;53.132;18.006;2024-01-10T16:09:54;102694.47;;;-2.26;80.45
77005;BME280;67261;53.132;18.006;2024-01-10T16:12:24;102690.30;;;-2.25;80.58
77005;BME280;67261;53.132;18.006;2024-01-10T16:14:52;102689.95;;;-2.26;80.43
77005;BME280;67261;53.132;18.006;2024-01-10T16:17:19;102685.31;;;-2.28;80.43
77005;BME280;67261;53.132;18.006;2024-01-10T16:19:46;102683.42;;;-2.29;80.54
77005;BME280;67261;53.132;18.006;2024-01-10T16:22:14;102672.67;;;-2.28;80.58
77005;BME280;67261;53.132;18.006;2024-01-10T16:24:41;102667.45;;;-2.27;80.44
77005;BME280;67261;53.132;18.006;2024-01-10T16:27:08;102665.70;;;-2.27;80.47
77005;BME280;67261;53.132;18.006;2024-01-10T16:29:35;102652.52;;;-2.27;80.51
77005;BME280;67261;53.132;18.006;2024-01-10T16:32:02;102648.02;;;-2.27;80.43
77005;BME280;67261;53.132;18.006;2024-01-10T16:34:30;102642.67;;;-2.28;80.53
77005;BME280;67261;53.132;18.006;2024-01-10T16:36:58;102652.92;;;-2.29;80.58
77005;BME280;67261;53.132;18.006;2024-01-10T16:39:25;102656.94;;;-2.32;80.60
77005;BME280;67261;53.132;18.006;2024-01-10T16:41:52;102651.76;;;-2.32;80.65
77005;BME280;67261;53.132;18.006;2024-01-10T16:44:23;102650.02;;;-2.32;80.53
77005;BME280;67261;53.132;18.006;2024-01-10T16:46:50;102644.77;;;-2.30;80.43
77005;BME280;67261;53.132;18.006;2024-01-10T16:49:17;102640.64;;;-2.31;80.56
77005;BME280;67261;53.132;18.006;2024-01-10T16:51:50;102629.70;;;-2.30;80.65
77005;BME280;67261;53.132;18.006;2024-01-10T16:54:18;102621.21;;;-2.30;80.57
77005;BME280;67261;53.132;18.006;2024-01-10T16:56:45;102619.68;;;-2.32;80.53
77005;BME280;67261;53.132;18.006;2024-01-10T16:59:13;102616.05;;;-2.32;80.68
77005;BME280;67261;53.132;18.006;2024-01-10T17:01:40;102612.77;;;-2.32;80.64
77005;BME280;67261;53.132;18.006;2024-01-10T17:04:07;102616.58;;;-2.33;80.66
77005;BME280;67261;53.132;18.006;2024-01-10T17:06:34;102610.50;;;-2.32;80.74
77005;BME280;67261;53.132;18.006;2024-01-10T17:09:02;102609.65;;;-2.33;80.65
77005;BME280;67261;53.132;18.006;2024-01-10T17:11:31;102610.71;;;-2.34;80.59
77005;BME280;67261;53.132;18.006;2024-01-10T17:13:58;102610.41;;;-2.37;80.66
77005;BME280;67261;53.132;18.006;2024-01-10T17:16:28;102608.55;;;-2.40;80.60
77005;BME280;67261;53.132;18.006;2024-01-10T17:21:40;102600.11;;;-2.43;80.84
77005;BME280;67261;53.132;18.006;2024-01-10T17:24:12;102594.77;;;-2.46;80.88
77005;BME280;67261;53.132;18.006;2024-01-10T17:26:40;102594.25;;;-2.46;80.96
77005;BME280;67261;53.132;18.006;2024-01-10T17:29:07;102590.98;;;-2.46;80.93
77005;BME280;67261;53.132;18.006;2024-01-10T17:31:35;102594.11;;;-2.47;80.81
77005;BME280;67261;53.132;18.006;2024-01-10T17:34:06;102597.95;;;-2.49;80.95
77005;BME280;67261;53.132;18.006;2024-01-10T17:36:35;102600.94;;;-2.51;80.93
77005;BME280;67261;53.132;18.006;2024-01-10T17:39:07;102608.64;;;-2.56;80.99
77005;BME280;67261;53.132;18.006;2024-01-10T17:41:35;102610.57;;;-2.58;81.01
77005;BME280;67261;53.132;18.006;2024-01-10T17:44:02;102606.92;;;-2.58;81.06
77005;BME280;67261;53.132;18.006;2024-01-10T17:46:29;102604.13;;;-2.56;81.11
77005;BME280;67261;53.132;18.006;2024-01-10T17:48:57;102601.84;;;-2.54;81.15
77005;BME280;67261;53.132;18.006;2024-01-10T17:51:24;102599.94;;;-2.54;81.07
77005;BME280;67261;53.132;18.006;2024-01-10T17:53:54;102595.95;;;-2.54;81.07
77005;BME280;67261;53.132;18.006;2024-01-10T17:56:24;102594.56;;;-2.54;81.10
77005;BME280;67261;53.132;18.006;2024-01-10T17:58:51;102587.77;;;-2.52;81.11
77005;BME280;67261;53.132;18.006;2024-01-10T18:01:19;102583.80;;;-2.52;81.09
77005;BME280;67261;53.132;18.006;2024-01-10T18:03:46;102585.86;;;-2.51;81.02
77005;BME280;67261;53.132;18.006;2024-01-10T18:06:13;102582.71;;;-2.50;80.95
77005;BME280;67261;53.132;18.006;2024-01-10T18:08:43;102582.52;;;-2.48;80.93
77005;BME280;67261;53.132;18.006;2024-01-10T18:11:10;102585.09;;;-2.47;81.03
77005;BME280;67261;53.132;18.006;2024-01-10T18:13:37;102581.45;;;-2.47;80.83
77005;BME280;67261;53.132;18.006;2024-01-10T18:16:04;102581.14;;;-2.49;80.78
77005;BME280;67261;53.132;18.006;2024-01-10T18:18:31;102583.06;;;-2.50;80.81
77005;BME280;67261;53.132;18.006;2024-01-10T18:21:00;102577.21;;;-2.52;80.96
77005;BME280;67261;53.132;18.006;2024-01-10T18:23:28;102571.15;;;-2.52;80.95
77005;BME280;67261;53.132;18.006;2024-01-10T18:25:56;102569.95;;;-2.53;80.97
77005;BME280;67261;53.132;18.006;2024-01-10T18:28:23;102566.33;;;-2.54;81.06
77005;BME280;67261;53.132;18.006;2024-01-10T18:30:50;102572.20;;;-2.55;80.93
77005;BME280;67261;53.132;18.006;2024-01-10T18:33:17;102572.20;;;-2.54;81.09
77005;BME280;67261;53.132;18.006;2024-01-10T18:35:44;102575.01;;;-2.55;80.94
77005;BME280;67261;53.132;18.006;2024-01-10T18:38:12;102570.36;;;-2.57;80.97
77005;BME280;67261;53.132;18.006;2024-01-10T18:40:43;102567.27;;;-2.59;81.03
77005;BME280;67261;53.132;18.006;2024-01-10T18:43:12;102571.60;;;-2.59;81.08
77005;BME280;67261;53.132;18.006;2024-01-10T18:45:40;102571.97;;;-2.59;81.00
77005;BME280;67261;53.132;18.006;2024-01-10T18:48:07;102564.70;;;-2.60;81.19
77005;BME280;67261;53.132;18.006;2024-01-10T18:50:35;102565.85;;;-2.57;81.12
77005;BME280;67261;53.132;18.006;2024-01-10T18:53:04;102562.55;;;-2.56;81.03
77005;BME280;67261;53.132;18.006;2024-01-10T18:55:31;102567.23;;;-2.57;81.10
77005;BME280;67261;53.132;18.006;2024-01-10T18:57:58;102570.20;;;-2.58;81.17
77005;BME280;67261;53.132;18.006;2024-01-10T19:00:26;102572.42;;;-2.56;81.00
77005;BME280;67261;53.132;18.006;2024-01-10T19:02:54;102573.06;;;-2.54;80.99
77005;BME280;67261;53.132;18.006;2024-01-10T19:05:23;102575.31;;;-2.53;81.02
77005;BME280;67261;53.132;18.006;2024-01-10T19:07:51;102577.41;;;-2.54;80.90
77005;BME280;67261;53.132;18.006;2024-01-10T19:10:18;102575.52;;;-2.55;80.89
77005;BME280;67261;53.132;18.006;2024-01-10T19:12:45;102581.61;;;-2.56;80.92
77005;BME280;67261;53.132;18.006;2024-01-10T19:15:13;102576.23;;;-2.56;80.97
77005;BME280;67261;53.132;18.006;2024-01-10T19:17:40;102571.70;;;-2.54;80.89
77005;BME280;67261;53.132;18.006;2024-01-10T19:20:08;102572.73;;;-2.54;81.04
77005;BME280;67261;53.132;18.006;2024-01-10T19:22:35;102576.54;;;-2.53;81.03
77005;BME280;67261;53.132;18.006;2024-01-10T19:25:03;102567.54;;;-2.54;80.98
77005;BME280;67261;53.132;18.006;2024-01-10T19:27:31;102565.66;;;-2.56;80.76
77005;BME280;67261;53.132;18.006;2024-01-10T19:29:59;102560.14;;;-2.57;80.75
77005;BME280;67261;53.132;18.006;2024-01-10T19:32:27;102550.13;;;-2.59;80.67
77005;BME280;67261;53.132;18.006;2024-01-10T19:34:54;102549.02;;;-2.55;80.69
77005;BME280;67261;53.132;18.006;2024-01-10T19:37:24;102550.86;;;-2.52;80.76
77005;BME280;67261;53.132;18.006;2024-01-10T19:39:52;102554.81;;;-2.50;80.67
77005;BME280;67261;53.132;18.006;2024-01-10T19:42:21;102550.23;;;-2.55;80.75
77005;BME280;67261;53.132;18.006;2024-01-10T19:44:51;102565.08;;;-2.51;80.63
77005;BME280;67261;53.132;18.006;2024-01-10T19:47:20;102562.66;;;-2.53;80.72
77005;BME280;67261;53.132;18.006;2024-01-10T19:49:54;102558.04;;;-2.56;80.58
77005;BME280;67261;53.132;18.006;2024-01-10T19:52:22;102550.11;;;-2.58;80.76
77005;BME280;67261;53.132;18.006;2024-01-10T19:54:50;102544.26;;;-2.61;80.58
77005;BME280;67261;53.132;18.006;2024-01-10T19:57:17;102546.17;;;-2.61;80.53
77005;BME280;67261;53.132;18.006;2024-01-10T19:59:45;102541.14;;;-2.60;80.60
77005;BME280;67261;53.132;18.006;2024-01-10T20:02:12;102547.54;;;-2.59;80.57
77005;BME280;67261;53.132;18.006;2024-01-10T20:04:41;102536.27;;;-2.59;80.56
77005;BME280;67261;53.132;18.006;2024-01-10T20:07:09;102529.70;;;-2.60;80.53
77005;BME280;67261;53.132;18.006;2024-01-10T20:09:36;102531.78;;;-2.60;80.61
77005;BME280;67261;53.132;18.006;2024-01-10T20:12:05;102533.00;;;-2.61;80.59
77005;BME280;67261;53.132;18.006;2024-01-10T20:14:32;102536.27;;;-2.59;80.64
77005;BME280;67261;53.132;18.006;2024-01-10T20:16:59;102532.63;;;-2.59;80.54
77005;BME280;67261;53.132;18.006;2024-01-10T20:19:26;102529.19;;;-2.61;80.61
77005;BME280;67261;53.132;18.006;2024-01-10T20:21:53;102521.39;;;-2.61;80.72
77005;BME280;67261;53.132;18.006;2024-01-10T20:24:24;102510.65;;;-2.61;80.52
77005;BME280;67261;53.132;18.006;2024-01-10T20:26:51;102507.35;;;-2.60;80.57
77005;BME280;67261;53.132;18.006;2024-01-10T20:29:18;102510.26;;;-2.58;80.55
77005;BME280;67261;53.132;18.006;2024-01-10T20:31:45;102510.58;;;-2.57;80.56
77005;BME280;67261;53.132;18.006;2024-01-10T20:34:14;102514.73;;;-2.57;80.59
77005;BME280;67261;53.132;18.006;2024-01-10T20:36:42;102519.59;;;-2.55;80.54
77005;BME280;67261;53.132;18.006;2024-01-10T20:39:10;102514.77;;;-2.58;80.45
77005;BME280;67261;53.132;18.006;2024-01-10T20:41:38;102505.27;;;-2.60;80.73
77005;BME280;67261;53.132;18.006;2024-01-10T20:44:05;102498.00;;;-2.60;80.75
77005;BME280;67261;53.132;18.006;2024-01-10T20:46:32;102487.77;;;-2.60;80.59
77005;BME280;67261;53.132;18.006;2024-01-10T20:49:00;102481.85;;;-2.59;80.63
77005;BME280;67261;53.132;18.006;2024-01-10T20:51:27;102481.13;;;-2.57;80.60
77005;BME280;67261;53.132;18.006;2024-01-10T20:53:58;102488.01;;;-2.54;80.61
77005;BME280;67261;53.132;18.006;2024-01-10T20:56:25;102485.20;;;-2.52;80.64
77005;BME280;67261;53.132;18.006;2024-01-10T20:58:52;102483.77;;;-2.51;80.65
77005;BME280;67261;53.132;18.006;2024-01-10T21:01:19;102484.10;;;-2.49;80.74
77005;BME280;67261;53.132;18.006;2024-01-10T21:03:49;102484.29;;;-2.49;80.73
77005;BME280;67261;53.132;18.006;2024-01-10T21:06:16;102495.55;;;-2.50;80.74
77005;BME280;67261;53.132;18.006;2024-01-10T21:08:43;102490.89;;;-2.51;80.55
77005;BME280;67261;53.132;18.006;2024-01-10T21:11:12;102496.58;;;-2.48;80.68
77005;BME280;67261;53.132;18.006;2024-01-10T21:13:42;102505.38;;;-2.47;80.75
77005;BME280;67261;53.132;18.006;2024-01-10T21:16:09;102515.59;;;-2.47;80.60
77005;BME280;67261;53.132;18.006;2024-01-10T21:18:36;102514.37;;;-2.46;80.64
77005;BME280;67261;53.132;18.006;2024-01-10T21:21:04;102517.61;;;-2.44;80.76
77005;BME280;67261;53.132;18.006;2024-01-10T21:23:32;102518.11;;;-2.41;80.69
77005;BME280;67261;53.132;18.006;2024-01-10T21:25:59;102519.30;;;-2.40;80.77
77005;BME280;67261;53.132;18.006;2024-01-10T21:28:28;102507.65;;;-2.38;80.77
77005;BME280;67261;53.132;18.006;2024-01-10T21:30:58;102504.34;;;-2.37;80.93
77005;BME280;67261;53.132;18.006;2024-01-10T21:33:28;102501.02;;;-2.35;80.89
77005;BME280;67261;53.132;18.006;2024-01-10T21:35:56;102496.67;;;-2.35;80.84
77005;BME280;67261;53.132;18.006;2024-01-10T21:38:24;102495.96;;;-2.34;81.04
77005;BME280;67261;53.132;18.006;2024-01-10T21:40:52;102488.83;;;-2.32;81.11
77005;BME280;67261;53.132;18.006;2024-01-10T21:43:20;102485.83;;;-2.30;81.19
77005;BME280;67261;53.132;18.006;2024-01-10T21:45:48;102477.17;;;-2.31;81.15
77005;BME280;67261;53.132;18.006;2024-01-10T21:48:18;102470.81;;;-2.33;81.18
77005;BME280;67261;53.132;18.006;2024-01-10T21:50:50;102474.80;;;-2.33;81.18
77005;BME280;67261;53.132;18.006;2024-01-10T21:53:20;102474.78;;;-2.32;81.30
77005;BME280;67261;53.132;18.006;2024-01-10T21:55:53;102469.24;;;-2.32;81.23
77005;BME280;67261;53.132;18.006;2024-01-10T21:58:23;102461.63;;;-2.33;81.44
77005;BME280;67261;53.132;18.006;2024-01-10T22:00:52;102451.04;;;-2.32;81.59
77005;BME280;67261;53.132;18.006;2024-01-10T22:03:19;102442.72;;;-2.32;81.50
77005;BME280;67261;53.132;18.006;2024-01-10T22:05:47;102427.98;;;-2.32;81.53
77005;BME280;67261;53.132;18.006;2024-01-10T22:08:17;102418.59;;;-2.31;81.54
77005;BME280;67261;53.132;18.006;2024-01-10T22:10:48;102415.64;;;-2.31;81.69
77005;BME280;67261;53.132;18.006;2024-01-10T22:13:17;102414.83;;;-2.33;81.70
77005;BME280;67261;53.132;18.006;2024-01-10T22:15:50;102422.30;;;-2.34;81.77
77005;BME280;67261;53.132;18.006;2024-01-10T22:18:20;102423.14;;;-2.32;81.86
77005;BME280;67261;53.132;18.006;2024-01-10T22:20:48;102418.46;;;-2.32;82.01
77005;BME280;67261;53.132;18.006;2024-01-10T22:23:20;102411.00;;;-2.32;81.88
77005;BME280;67261;53.132;18.006;2024-01-10T22:25:48;102408.87;;;-2.29;82.09
77005;BME280;67261;53.132;18.006;2024-01-10T22:28:19;102400.89;;;-2.29;81.88
77005;BME280;67261;53.132;18.006;2024-01-10T22:30:48;102394.83;;;-2.29;81.97
77005;BME280;67261;53.132;18.006;2024-01-10T22:33:18;102390.30;;;-2.28;81.94
77005;BME280;67261;53.132;18.006;2024-01-10T22:35:45;102384.77;;;-2.30;81.90